createdAt,value
2022-08-29T00:01:50.800Z,94.89
2022-08-29T00:04:18.677Z,94.55
2022-08-29T00:06:46.467Z,95.08
2022-08-29T00:09:14.271Z,95.68
2022-08-29T00:11:45.162Z,95.70
2022-08-29T00:14:20.898Z,96.38
2022-08-29T00:16:51.601Z,96.93
2022-08-29T00:19:19.447Z,97.67
2022-08-29T00:21:47.278Z,97.92
2022-08-29T00:24:15.124Z,98.04
2022-08-29T00:26:42.853Z,97.56
2022-08-29T00:29:10.669Z,98.22
2022-08-29T00:31:38.560Z,98.68
2022-08-29T00:34:06.888Z,99.34
2022-08-29T00:36:34.761Z,99.12
2022-08-29T00:39:02.801Z,99.64
2022-08-29T00:41:30.627Z,99.90
2022-08-29T00:43:58.433Z,100.00
2022-08-29T00:46:44.615Z,100.00
2022-08-29T00:49:32.674Z,100.00
2022-08-29T00:52:04.707Z,100.00
2022-08-29T00:54:32.643Z,100.00
2022-08-29T00:57:00.650Z,100.00
2022-08-29T00:59:34.186Z,100.00
2022-08-29T01:02:02.088Z,100.00
2022-08-29T01:04:30.138Z,100.00
2022-08-29T01:06:58.107Z,100.00
2022-08-29T01:09:26.067Z,100.00
2022-08-29T01:12:12.891Z,100.00
2022-08-29T01:14:42.060Z,100.00
2022-08-29T01:17:10.452Z,100.00
2022-08-29T01:20:11.079Z,100.00
2022-08-29T01:22:59.918Z,100.00
2022-08-29T01:25:30.131Z,100.00
2022-08-29T01:28:05.438Z,100.00
2022-08-29T01:30:33.326Z,100.00
2022-08-29T01:33:02.037Z,100.00
2022-08-29T01:35:29.899Z,100.00
2022-08-29T01:37:57.672Z,100.00
2022-08-29T01:40:30.312Z,100.00
2022-08-29T01:42:58.723Z,100.00
2022-08-29T01:45:26.571Z,100.00
2022-08-29T01:47:54.430Z,100.00
2022-08-29T01:50:22.622Z,100.00
2022-08-29T01:52:50.676Z,100.00
2022-08-29T01:55:18.449Z,100.00
2022-08-29T01:57:46.909Z,100.00
2022-08-29T02:00:14.890Z,100.00
2022-08-29T02:02:44.435Z,99.75
2022-08-29T02:05:12.406Z,99.43
2022-08-29T02:07:40.166Z,100.00
2022-08-29T02:10:08.300Z,100.00
2022-08-29T02:12:36.693Z,100.00
2022-08-29T02:15:05.106Z,100.00
2022-08-29T02:17:32.897Z,100.00
2022-08-29T02:20:00.656Z,100.00
2022-08-29T02:22:28.481Z,100.00
2022-08-29T02:24:59.753Z,100.00
2022-08-29T02:27:27.562Z,100.00
2022-08-29T02:29:56.170Z,100.00
2022-08-29T02:32:23.930Z,100.00
2022-08-29T02:34:53.176Z,100.00
2022-08-29T02:37:21.001Z,100.00
2022-08-29T02:39:48.764Z,100.00
2022-08-29T02:42:16.573Z,100.00
2022-08-29T02:44:44.324Z,100.00
2022-08-29T02:47:12.090Z,100.00
2022-08-29T02:49:40.820Z,100.00
2022-08-29T02:52:09.663Z,100.00
2022-08-29T02:54:37.433Z,100.00
2022-08-29T02:57:06.078Z,100.00
2022-08-29T02:59:33.836Z,100.00
2022-08-29T03:02:01.796Z,100.00
2022-08-29T03:04:29.649Z,100.00
2022-08-29T03:06:57.410Z,100.00
2022-08-29T03:09:25.235Z,100.00
2022-08-29T03:11:56.212Z,100.00
2022-08-29T03:14:25.145Z,100.00
2022-08-29T03:16:53.047Z,100.00
2022-08-29T03:19:20.832Z,100.00
2022-08-29T03:21:48.841Z,100.00
2022-08-29T03:24:16.743Z,100.00
2022-08-29T03:26:56.233Z,100.00
2022-08-29T03:29:25.121Z,100.00
2022-08-29T03:31:52.902Z,100.00
2022-08-29T03:34:20.722Z,100.00
2022-08-29T03:36:48.522Z,100.00
2022-08-29T03:39:16.313Z,100.00
2022-08-29T03:41:44.242Z,100.00
2022-08-29T03:44:12.023Z,100.00
2022-08-29T03:46:40.651Z,100.00
2022-08-29T03:49:09.077Z,100.00
2022-08-29T03:51:38.047Z,100.00
2022-08-29T03:54:06.653Z,100.00
2022-08-29T03:56:34.439Z,100.00
2022-08-29T03:59:02.162Z,100.00
2022-08-29T04:01:30.824Z,100.00
2022-08-29T04:03:58.695Z,100.00
2022-08-29T04:06:27.278Z,100.00
2022-08-29T04:08:55.874Z,100.00
2022-08-29T04:11:25.226Z,100.00
2022-08-29T04:13:54.139Z,100.00
2022-08-29T04:16:24.648Z,100.00
2022-08-29T04:18:58.253Z,100.00
2022-08-29T04:21:27.376Z,100.00
2022-08-29T04:23:55.324Z,100.00
2022-08-29T04:26:38.468Z,100.00
2022-08-29T04:29:08.057Z,100.00
2022-08-29T04:31:36.095Z,100.00
2022-08-29T04:34:05.217Z,100.00
2022-08-29T04:36:34.647Z,100.00
2022-08-29T04:39:02.435Z,100.00
2022-08-29T04:41:32.472Z,100.00
2022-08-29T04:44:00.853Z,100.00
2022-08-29T04:46:28.727Z,100.00
2022-08-29T04:49:00.565Z,100.00
2022-08-29T04:51:31.092Z,100.00
2022-08-29T04:53:58.855Z,100.00
2022-08-29T04:56:26.608Z,100.00
2022-08-29T04:58:54.377Z,100.00
2022-08-29T05:01:23.599Z,100.00
2022-08-29T05:03:53.120Z,100.00
2022-08-29T05:06:22.433Z,100.00
2022-08-29T05:08:59.420Z,100.00
2022-08-29T05:11:29.658Z,100.00
2022-08-29T05:13:57.517Z,100.00
2022-08-29T05:16:25.374Z,100.00
2022-08-29T05:18:53.549Z,100.00
2022-08-29T05:21:37.860Z,100.00
2022-08-29T05:24:15.080Z,100.00
2022-08-29T05:26:44.854Z,100.00
2022-08-29T05:29:13.139Z,100.00
2022-08-29T05:31:42.359Z,100.00
2022-08-29T05:34:32.104Z,100.00
2022-08-29T05:37:00.718Z,100.00
2022-08-29T05:39:28.543Z,100.00
2022-08-29T05:41:58.947Z,100.00
2022-08-29T05:44:30.521Z,100.00
2022-08-29T05:47:02.032Z,100.00
2022-08-29T05:49:29.895Z,100.00
2022-08-29T05:51:57.881Z,100.00
2022-08-29T05:54:30.538Z,100.00
2022-08-29T05:56:58.371Z,100.00
2022-08-29T05:59:27.163Z,100.00
2022-08-29T06:01:55.050Z,100.00
2022-08-29T06:04:22.938Z,100.00
2022-08-29T06:06:52.782Z,100.00
2022-08-29T06:09:20.643Z,100.00
2022-08-29T06:11:49.797Z,100.00
2022-08-29T06:14:21.019Z,100.00
2022-08-29T06:16:53.517Z,100.00
2022-08-29T06:19:21.346Z,100.00
2022-08-29T06:21:49.550Z,100.00
2022-08-29T06:24:19.065Z,100.00
2022-08-29T06:26:47.064Z,100.00
2022-08-29T06:29:16.017Z,100.00
2022-08-29T06:31:43.857Z,100.00
2022-08-29T06:34:12.011Z,100.00
2022-08-29T06:36:45.833Z,100.00
2022-08-29T06:39:20.216Z,100.00
2022-08-29T06:41:48.075Z,100.00
2022-08-29T06:44:16.308Z,100.00
2022-08-29T06:46:45.360Z,100.00
2022-08-29T06:49:14.593Z,100.00
2022-08-29T06:51:44.231Z,100.00
2022-08-29T06:54:17.703Z,100.00
2022-08-29T06:56:45.769Z,100.00
2022-08-29T06:59:13.846Z,100.00
2022-08-29T07:01:43.352Z,100.00
2022-08-29T07:04:14.392Z,100.00
2022-08-29T07:06:43.079Z,100.00
2022-08-29T07:09:10.956Z,100.00
2022-08-29T07:11:41.196Z,100.00
2022-08-29T07:14:09.489Z,100.00
2022-08-29T07:16:37.468Z,100.00
2022-08-29T07:19:06.174Z,100.00
2022-08-29T07:21:33.976Z,100.00
2022-08-29T07:24:02.059Z,100.00
2022-08-29T07:26:31.868Z,99.63
2022-08-29T07:29:03.042Z,99.94
2022-08-29T07:31:31.580Z,98.70
2022-08-29T07:34:02.690Z,97.67
2022-08-29T07:36:34.229Z,97.75
2022-08-29T07:39:02.688Z,97.56
2022-08-29T07:41:31.412Z,96.41
2022-08-29T07:43:59.188Z,94.65
2022-08-29T07:46:27.996Z,93.42
2022-08-29T07:48:56.062Z,91.84
2022-08-29T07:51:24.712Z,90.49
2022-08-29T07:53:52.754Z,90.52
2022-08-29T07:56:26.332Z,90.00
2022-08-29T07:58:54.416Z,87.43
2022-08-29T08:01:22.633Z,86.27
2022-08-29T08:03:51.478Z,86.73
2022-08-29T08:06:22.507Z,87.18
2022-08-29T08:08:50.707Z,84.43
2022-08-29T08:11:19.023Z,83.24
2022-08-29T08:13:46.998Z,84.65
2022-08-29T08:16:19.925Z,83.92
2022-08-29T08:18:47.736Z,82.79
2022-08-29T08:21:15.506Z,82.91
2022-08-29T08:23:43.415Z,82.12
2022-08-29T08:26:11.703Z,80.85
2022-08-29T08:28:39.558Z,79.62
2022-08-29T08:31:08.503Z,79.01
2022-08-29T08:33:39.894Z,78.28
2022-08-29T08:36:37.613Z,77.79
2022-08-29T08:39:08.721Z,76.95
2022-08-29T08:41:52.269Z,78.53
2022-08-29T08:44:22.717Z,76.39
2022-08-29T08:46:52.370Z,75.15
2022-08-29T08:49:35.261Z,74.87
2022-08-29T08:52:14.954Z,73.32
2022-08-29T08:54:56.673Z,72.85
2022-08-29T08:57:24.567Z,74.24
2022-08-29T08:59:57.129Z,73.81
2022-08-29T09:02:36.266Z,71.49
2022-08-29T09:05:44.041Z,74.05
2022-08-29T09:08:45.708Z,70.32
2022-08-29T09:11:36.406Z,70.81
2022-08-29T09:14:10.111Z,69.19
2022-08-29T09:16:47.621Z,70.41
2022-08-29T09:19:17.321Z,67.55
2022-08-29T09:21:49.624Z,69.25
2022-08-29T09:24:24.812Z,68.45
2022-08-29T09:26:52.599Z,64.79
2022-08-29T09:29:22.136Z,66.23
2022-08-29T09:32:11.461Z,66.37
2022-08-29T09:35:07.413Z,64.60
2022-08-29T09:37:35.081Z,64.29
2022-08-29T09:40:16.770Z,63.63
2022-08-29T09:42:51.902Z,63.51
2022-08-29T09:45:25.036Z,64.14
2022-08-29T09:48:18.738Z,63.40
2022-08-29T09:50:46.583Z,61.93
2022-08-29T09:53:25.327Z,62.12
2022-08-29T09:55:53.770Z,63.86
2022-08-29T09:58:21.420Z,63.32
2022-08-29T10:01:26.207Z,62.26
2022-08-29T10:03:59.786Z,60.29
2022-08-29T10:06:34.357Z,62.58
2022-08-29T10:09:06.638Z,61.68
2022-08-29T10:11:52.939Z,60.56
2022-08-29T10:14:38.972Z,60.53
2022-08-29T10:17:34.309Z,59.08
2022-08-29T10:20:02.382Z,61.49
2022-08-29T10:22:50.537Z,61.33
2022-08-29T10:25:22.021Z,58.46
2022-08-29T10:27:56.885Z,60.31
2022-08-29T10:30:27.447Z,60.64
2022-08-29T10:33:05.779Z,61.05
2022-08-29T10:36:08.057Z,60.57
2022-08-29T10:38:48.220Z,58.91
2022-08-29T10:41:50.761Z,58.06
2022-08-29T10:44:33.424Z,57.96
2022-08-29T10:47:54.812Z,59.43
2022-08-29T10:50:44.647Z,57.89
2022-08-29T10:53:47.284Z,60.80
2022-08-29T10:56:28.330Z,58.61
2022-08-29T10:59:21.699Z,58.60
2022-08-29T11:02:00.554Z,57.88
2022-08-29T11:04:40.801Z,56.99
2022-08-29T11:07:23.096Z,58.18
2022-08-29T11:10:42.876Z,58.52
2022-08-29T11:13:15.387Z,59.47
2022-08-29T11:16:07.390Z,56.63
2022-08-29T11:18:40.386Z,57.51
2022-08-29T11:21:58.059Z,56.42
2022-08-29T11:24:35.136Z,55.98
2022-08-29T11:27:16.820Z,54.99
2022-08-29T11:30:09.618Z,55.39
2022-08-29T11:32:50.931Z,56.02
2022-08-29T11:35:24.937Z,56.49
2022-08-29T11:38:15.276Z,53.99
2022-08-29T11:43:57.050Z,54.94
2022-08-29T11:46:41.008Z,55.35
2022-08-29T11:49:41.093Z,55.29
2022-08-29T11:52:12.266Z,54.23
2022-08-29T11:54:43.135Z,52.93
2022-08-29T11:57:17.614Z,53.77
2022-08-29T12:00:10.658Z,52.65
2022-08-29T12:02:40.313Z,52.69
2022-08-29T12:05:28.258Z,54.01
2022-08-29T12:08:03.049Z,53.28
2022-08-29T12:10:53.066Z,53.95
2022-08-29T12:13:54.380Z,51.99
2022-08-29T12:16:50.220Z,51.61
2022-08-29T12:20:15.415Z,52.70
2022-08-29T12:23:18.140Z,52.51
2022-08-29T12:26:21.575Z,51.98
2022-08-29T12:28:59.534Z,53.12
2022-08-29T12:31:36.380Z,52.12
2022-08-29T12:34:19.951Z,50.58
2022-08-29T12:36:56.512Z,50.84
2022-08-29T12:39:34.837Z,51.00
2022-08-29T12:42:21.764Z,51.00
2022-08-29T12:45:12.157Z,50.04
2022-08-29T12:48:06.190Z,49.02
2022-08-29T12:51:01.846Z,48.67
2022-08-29T12:53:32.205Z,50.86
2022-08-29T12:56:11.957Z,51.42
2022-08-29T12:58:48.054Z,50.24
2022-08-29T13:01:31.950Z,49.65
2022-08-29T13:04:13.296Z,49.58
2022-08-29T13:07:02.349Z,48.46
2022-08-29T13:09:38.083Z,50.21
2022-08-29T13:12:19.135Z,46.77
2022-08-29T13:14:52.731Z,48.25
2022-08-29T13:17:22.707Z,47.84
2022-08-29T13:20:41.563Z,48.18
2022-08-29T13:23:27.525Z,47.00
2022-08-29T13:26:03.145Z,46.71
2022-08-29T13:28:52.748Z,45.75
2022-08-29T13:31:22.350Z,47.89
2022-08-29T13:33:50.138Z,47.98
2022-08-29T13:36:31.328Z,46.76
2022-08-29T13:39:18.254Z,45.14
2022-08-29T13:41:47.071Z,46.02
2022-08-29T13:44:23.649Z,46.69
2022-08-29T13:46:52.675Z,45.84
2022-08-29T13:49:25.203Z,46.08
2022-08-29T13:51:53.086Z,44.25
2022-08-29T13:54:20.870Z,44.33
2022-08-29T13:56:50.507Z,44.53
2022-08-29T13:59:18.274Z,46.07
2022-08-29T14:04:38.598Z,44.89
2022-08-29T14:07:07.555Z,43.88
2022-08-29T14:09:40.640Z,44.31
2022-08-29T14:12:08.760Z,43.80
2022-08-29T14:14:36.627Z,44.87
2022-08-29T14:17:04.482Z,44.70
2022-08-29T14:19:32.322Z,44.58
2022-08-29T14:22:03.290Z,44.82
2022-08-29T14:24:32.020Z,45.20
2022-08-29T14:27:01.682Z,46.36
2022-08-29T14:29:31.070Z,45.20
2022-08-29T14:31:59.643Z,43.44
2022-08-29T14:34:32.561Z,44.91
2022-08-29T14:37:01.700Z,45.65
2022-08-29T14:39:29.906Z,45.96
2022-08-29T14:41:57.806Z,46.72
2022-08-29T14:44:25.610Z,46.54
2022-08-29T14:46:53.743Z,47.47
2022-08-29T14:49:21.583Z,46.81
2022-08-29T14:51:49.903Z,46.83
2022-08-29T14:54:19.047Z,46.95
2022-08-29T14:56:49.575Z,48.10
2022-08-29T14:59:19.304Z,47.23
2022-08-29T15:01:52.909Z,48.13
2022-08-29T15:04:35.623Z,47.61
2022-08-29T15:07:09.172Z,46.87
2022-08-29T15:09:37.105Z,47.27
2022-08-29T15:12:05.420Z,47.01
2022-08-29T15:14:35.389Z,47.44
2022-08-29T15:17:04.066Z,47.71
2022-08-29T15:20:17.673Z,47.55
2022-08-29T15:22:20.014Z,48.08
2022-08-29T15:24:47.878Z,48.16
2022-08-29T15:27:15.669Z,48.79
2022-08-29T15:29:43.485Z,48.84
2022-08-29T15:32:12.908Z,49.19
2022-08-29T15:34:41.575Z,48.35
2022-08-29T15:37:10.174Z,48.11
2022-08-29T15:39:38.103Z,47.68
2022-08-29T15:42:09.568Z,47.53
2022-08-29T15:44:37.338Z,47.00
2022-08-29T15:47:05.231Z,47.29
2022-08-29T15:49:38.292Z,47.80
2022-08-29T15:52:06.197Z,47.58
2022-08-29T15:54:34.016Z,47.78
2022-08-29T15:57:01.883Z,47.76
2022-08-29T15:59:54.318Z,47.39
2022-08-29T16:02:18.497Z,48.13
2022-08-29T16:04:48.709Z,48.15
2022-08-29T16:07:16.936Z,47.79
2022-08-29T16:09:45.530Z,48.02
2022-08-29T16:12:13.580Z,48.10
2022-08-29T16:17:30.877Z,48.31
2022-08-29T16:19:59.373Z,48.33
2022-08-29T16:22:28.918Z,49.50
2022-08-29T16:24:56.789Z,49.32
2022-08-29T16:27:25.677Z,48.89
2022-08-29T16:29:53.997Z,48.72
2022-08-29T16:32:21.944Z,49.20
2022-08-29T16:34:49.891Z,49.35
2022-08-29T16:37:17.703Z,49.27
2022-08-29T16:39:45.528Z,49.28
2022-08-29T16:42:13.459Z,49.49
2022-08-29T16:44:41.584Z,49.79
2022-08-29T16:47:09.410Z,49.70
2022-08-29T16:49:37.215Z,50.24
2022-08-29T16:52:05.737Z,50.62
2022-08-29T16:54:33.665Z,50.75
2022-08-29T16:57:01.590Z,50.81
2022-08-29T16:59:29.492Z,51.87
2022-08-29T17:01:57.743Z,52.13
2022-08-29T17:04:27.368Z,52.91
2022-08-29T17:06:55.338Z,54.62
2022-08-29T17:09:24.335Z,53.38
2022-08-29T17:11:52.477Z,53.26
2022-08-29T17:14:20.575Z,53.07
2022-08-29T17:16:49.140Z,53.52
2022-08-29T17:19:17.043Z,53.36
2022-08-29T17:21:44.940Z,54.12
2022-08-29T17:24:13.368Z,55.95
2022-08-29T17:26:42.544Z,57.20
2022-08-29T17:29:10.475Z,55.95
2022-08-29T17:31:39.213Z,55.21
2022-08-29T17:34:07.825Z,56.10
2022-08-29T17:36:37.656Z,56.66
2022-08-29T17:39:06.495Z,57.19
2022-08-29T17:41:36.901Z,58.79
2022-08-29T17:44:06.421Z,56.99
2022-08-29T17:46:34.353Z,57.99
2022-08-29T17:49:06.961Z,59.72
2022-08-29T17:51:36.094Z,60.98
2022-08-29T17:54:05.351Z,60.82
2022-08-29T17:56:44.422Z,61.58
2022-08-29T17:59:13.592Z,62.77
2022-08-29T18:01:41.594Z,62.83
2022-08-29T18:04:09.598Z,61.89
2022-08-29T18:06:37.598Z,62.86
2022-08-29T18:09:06.116Z,63.41
2022-08-29T18:11:34.209Z,63.63
2022-08-29T18:14:02.363Z,64.29
2022-08-29T18:16:30.357Z,64.30
2022-08-29T18:18:58.296Z,65.55
2022-08-29T18:21:27.147Z,66.53
2022-08-29T18:23:55.016Z,66.44
2022-08-29T18:26:22.985Z,66.60
2022-08-29T18:28:51.316Z,66.30
2022-08-29T18:31:19.797Z,67.20
2022-08-29T18:34:04.173Z,67.53
2022-08-29T18:36:33.497Z,67.74
2022-08-29T18:39:02.210Z,68.14
2022-08-29T18:41:30.116Z,68.22
2022-08-29T18:43:58.313Z,67.92
2022-08-29T18:46:27.159Z,68.38
2022-08-29T18:48:55.108Z,67.58
2022-08-29T18:51:22.915Z,68.75
2022-08-29T18:53:50.868Z,69.02
2022-08-29T18:56:18.700Z,69.40
2022-08-29T18:58:46.602Z,69.82
2022-08-29T19:01:15.506Z,70.90
2022-08-29T19:03:55.136Z,72.90
2022-08-29T19:06:26.913Z,72.97
2022-08-29T19:08:55.602Z,73.03
2022-08-29T19:11:23.574Z,74.73
2022-08-29T19:15:00.890Z,75.06
2022-08-29T19:16:40.817Z,75.13
2022-08-29T19:19:13.204Z,75.54
2022-08-29T19:21:43.575Z,76.62
2022-08-29T19:24:11.525Z,76.48
2022-08-29T19:26:41.287Z,76.86
2022-08-29T19:29:15.257Z,77.48
2022-08-29T19:31:43.643Z,78.77
2022-08-29T19:34:12.505Z,78.52
2022-08-29T19:36:41.178Z,78.67
2022-08-29T19:39:09.045Z,79.04
2022-08-29T19:41:37.447Z,80.40
2022-08-29T19:44:05.433Z,80.96
2022-08-29T19:46:33.960Z,82.44
2022-08-29T19:49:02.722Z,81.23
2022-08-29T19:51:33.947Z,82.43
2022-08-29T19:54:04.665Z,81.82
2022-08-29T19:56:34.512Z,83.03
2022-08-29T19:59:02.574Z,83.78
2022-08-29T20:01:30.550Z,83.36
2022-08-29T20:03:58.542Z,83.55
2022-08-29T20:06:27.121Z,83.70
2022-08-29T20:08:54.970Z,82.98
2022-08-29T20:11:25.894Z,82.45
2022-08-29T20:13:54.622Z,83.22
2022-08-29T20:16:23.914Z,83.55
2022-08-29T20:18:52.152Z,83.30
2022-08-29T20:21:20.393Z,83.71
2022-08-29T20:23:52.851Z,84.37
2022-08-29T20:26:30.051Z,85.63
2022-08-29T20:28:59.697Z,86.26
2022-08-29T20:31:29.510Z,85.46
2022-08-29T20:34:00.712Z,86.06
2022-08-29T20:36:49.405Z,86.95
2022-08-29T20:39:24.264Z,87.61
2022-08-29T20:41:56.583Z,87.24
2022-08-29T20:44:33.774Z,87.88
2022-08-29T20:47:06.889Z,88.61
2022-08-29T20:49:36.176Z,88.90
2022-08-29T20:52:06.042Z,89.89
2022-08-29T20:54:39.050Z,88.92
2022-08-29T20:57:29.532Z,89.61
2022-08-29T20:59:58.082Z,89.83
2022-08-29T21:02:50.187Z,89.29
2022-08-29T21:05:37.898Z,90.95
2022-08-29T21:08:09.563Z,89.55
2022-08-29T21:10:54.560Z,90.71
2022-08-29T21:13:29.948Z,90.75
2022-08-29T21:16:01.265Z,89.56
2022-08-29T21:18:35.057Z,90.12
2022-08-29T21:21:14.720Z,92.31
2022-08-29T21:23:50.357Z,90.38
2022-08-29T21:26:34.832Z,91.20
2022-08-29T21:29:03.286Z,92.34
2022-08-29T21:31:35.182Z,91.55
2022-08-29T21:34:07.284Z,92.31
2022-08-29T21:36:45.157Z,92.14
2022-08-29T21:39:28.241Z,92.13
2022-08-29T21:42:02.474Z,91.90
2022-08-29T21:44:37.523Z,91.82
2022-08-29T21:47:18.135Z,92.26
2022-08-29T21:50:03.540Z,91.95
2022-08-29T21:52:32.257Z,91.95
2022-08-29T21:55:00.704Z,92.37
2022-08-29T21:57:56.868Z,92.13
2022-08-29T22:00:33.952Z,92.63
2022-08-29T22:03:06.172Z,91.97
2022-08-29T22:05:40.707Z,91.44
2022-08-29T22:08:16.673Z,92.31
2022-08-29T22:10:45.453Z,93.28
2022-08-29T22:13:16.772Z,93.02
2022-08-29T22:16:12.205Z,93.96
2022-08-29T22:18:43.260Z,94.86
2022-08-29T22:21:15.141Z,94.63
2022-08-29T22:23:45.730Z,94.75
2022-08-29T22:26:14.626Z,95.96
2022-08-29T22:28:43.502Z,97.39
2022-08-29T22:31:11.368Z,97.68
2022-08-29T22:34:02.442Z,97.67
2022-08-29T22:36:34.141Z,98.86
2022-08-29T22:39:02.085Z,99.28
2022-08-29T22:41:30.198Z,99.13
2022-08-29T22:44:42.480Z,99.59
2022-08-29T22:46:50.846Z,99.93
2022-08-29T22:49:20.273Z,100.00
2022-08-29T22:51:49.390Z,100.00
2022-08-29T22:54:35.605Z,99.87
2022-08-29T22:57:08.255Z,99.81
2022-08-29T22:59:36.248Z,100.00
2022-08-29T23:02:07.532Z,99.42
2022-08-29T23:04:35.583Z,100.00
2022-08-29T23:07:06.639Z,100.00
2022-08-29T23:09:35.595Z,99.19
2022-08-29T23:12:09.267Z,99.68
2022-08-29T23:14:38.475Z,99.53
2022-08-29T23:17:06.986Z,99.02
2022-08-29T23:19:36.473Z,98.59
2022-08-29T23:22:07.181Z,98.73
2022-08-29T23:24:36.894Z,98.22
2022-08-29T23:27:05.791Z,98.54
2022-08-29T23:29:42.069Z,99.08
2022-08-29T23:32:10.819Z,98.93
2022-08-29T23:34:40.872Z,98.86
2022-08-29T23:37:09.572Z,98.38
2022-08-29T23:39:41.115Z,98.60
2022-08-29T23:42:09.168Z,99.26
2022-08-29T23:44:39.731Z,99.56
2022-08-29T23:47:09.553Z,100.00
2022-08-29T23:49:40.484Z,100.00
2022-08-29T23:52:09.028Z,100.00
2022-08-29T23:54:37.956Z,99.94
2022-08-29T23:57:06.890Z,99.63
2022-08-29T23:59:54.732Z,99.13
